sensor_id;sensor_type;location;lat;lon;timestamp;pressure;altitude;pressure_sealevel;temperature;humidity
76632;BME280;65526;48.578;-4.520;2023-07-29T00:01:00;100469.75;;;18.00;100.00
76632;BME280;65526;48.578;-4.520;2023-07-29T00:03:27;99940.63;;;14.63;100.00
76632;BME280;65526;48.578;-4.520;2023-07-29T00:05:56;100141.53;;;15.59;100.00
76632;BME280;65526;48.578;-4.520;2023-07-29T00:08:22;100301.00;;;16.84;100.00
76632;BME280;65526;48.578;-4.520;2023-07-29T00:10:48;100057.06;;;15.25;100.00
76632;BME280;65526;48.578;-4.520;2023-07-29T00:13:15;100269.72;;;16.43;100.00
76632;BME280;65526;48.578;-4.520;2023-07-29T00:15:41;100142.34;;;15.70;100.00
76632;BME280;65526;48.578;-4.520;2023-07-29T00:18:08;99902.13;;;14.21;100.00
76632;BME280;65526;48.578;-4.520;2023-07-29T00:20:34;100026.22;;;14.93;100.00
76632;BME280;65526;48.578;-4.520;2023-07-29T00:23:00;99854.22;;;14.16;100.00
76632;BME280;65526;48.578;-4.520;2023-07-29T00:25:27;100335.81;;;17.33;100.00
76632;BME280;65526;48.578;-4.520;2023-07-29T00:27:57;99864.66;;;14.33;100.00
76632;BME280;65526;48.578;-4.520;2023-07-29T00:30:24;99999.81;;;14.87;100.00
76632;BME280;65526;48.578;-4.520;2023-07-29T00:32:51;100320.59;;;17.20;100.00
76632;BME280;65526;48.578;-4.520;2023-07-29T00:35:17;100103.47;;;15.51;100.00
76632;BME280;65526;48.578;-4.520;2023-07-29T00:37:43;100489.50;;;17.75;100.00
76632;BME280;65526;48.578;-4.520;2023-07-29T00:40:16;99892.94;;;14.10;100.00
76632;BME280;65526;48.578;-4.520;2023-07-29T00:42:45;100007.41;;;14.79;100.00
76632;BME280;65526;48.578;-4.520;2023-07-29T00:45:12;100065.13;;;15.62;100.00
76632;BME280;65526;48.578;-4.520;2023-07-29T00:47:39;99892.69;;;14.47;100.00
76632;BME280;65526;48.578;-4.520;2023-07-29T00:50:07;100229.25;;;16.30;100.00
76632;BME280;65526;48.578;-4.520;2023-07-29T00:52:34;100568.81;;;18.60;100.00
76632;BME280;65526;48.578;-4.520;2023-07-29T00:55:01;99880.59;;;14.29;100.00
76632;BME280;65526;48.578;-4.520;2023-07-29T00:57:29;100019.84;;;15.14;100.00
76632;BME280;65526;48.578;-4.520;2023-07-29T00:59:56;100008.25;;;15.04;100.00
76632;BME280;65526;48.578;-4.520;2023-07-29T01:02:22;100135.16;;;15.55;100.00
76632;BME280;65526;48.578;-4.520;2023-07-29T01:04:57;100035.78;;;14.85;100.00
76632;BME280;65526;48.578;-4.520;2023-07-29T01:07:39;100562.09;;;18.30;100.00
76632;BME280;65526;48.578;-4.520;2023-07-29T01:12:41;100026.91;;;14.58;100.00
76632;BME280;65526;48.578;-4.520;2023-07-29T01:15:23;100160.69;;;15.39;100.00
76632;BME280;65526;48.578;-4.520;2023-07-29T01:17:56;100027.00;;;14.90;100.00
76632;BME280;65526;48.578;-4.520;2023-07-29T01:20:25;100422.53;;;17.10;100.00
76632;BME280;65526;48.578;-4.520;2023-07-29T01:22:52;100088.97;;;14.95;100.00
76632;BME280;65526;48.578;-4.520;2023-07-29T01:25:19;99975.75;;;14.50;100.00
76632;BME280;65526;48.578;-4.520;2023-07-29T01:27:48;100077.44;;;15.18;100.00
76632;BME280;65526;48.578;-4.520;2023-07-29T01:30:14;100004.56;;;14.65;100.00
76632;BME280;65526;48.578;-4.520;2023-07-29T01:32:55;100566.94;;;18.15;100.00
76632;BME280;65526;48.578;-4.520;2023-07-29T01:35:34;99978.94;;;14.45;100.00
76632;BME280;65526;48.578;-4.520;2023-07-29T01:38:08;100229.66;;;16.25;100.00
76632;BME280;65526;48.578;-4.520;2023-07-29T01:40:36;100056.53;;;14.73;100.00
76632;BME280;65526;48.578;-4.520;2023-07-29T01:43:02;99818.50;;;13.56;100.00
76632;BME280;65526;48.578;-4.520;2023-07-29T01:45:29;99989.78;;;14.61;100.00
76632;BME280;65526;48.578;-4.520;2023-07-29T01:47:58;100102.63;;;15.29;100.00
76632;BME280;65526;48.578;-4.520;2023-07-29T01:50:24;100083.38;;;14.92;100.00
76632;BME280;65526;48.578;-4.520;2023-07-29T01:52:50;100307.44;;;16.60;100.00
76632;BME280;65526;48.578;-4.520;2023-07-29T01:55:17;100086.59;;;14.94;100.00
76632;BME280;65526;48.578;-4.520;2023-07-29T01:57:43;100468.25;;;17.21;100.00
76632;BME280;65526;48.578;-4.520;2023-07-29T02:00:11;99850.44;;;13.59;100.00
76632;BME280;65526;48.578;-4.520;2023-07-29T02:02:40;100540.06;;;17.78;100.00
76632;BME280;65526;48.578;-4.520;2023-07-29T02:05:06;100005.53;;;14.21;100.00
76632;BME280;65526;48.578;-4.520;2023-07-29T02:07:33;100128.53;;;14.90;100.00
76632;BME280;65526;48.578;-4.520;2023-07-29T02:09:59;100321.81;;;16.44;100.00
76632;BME280;65526;48.578;-4.520;2023-07-29T02:12:26;99806.78;;;13.19;100.00
76632;BME280;65526;48.578;-4.520;2023-07-29T02:14:52;100113.75;;;14.93;100.00
76632;BME280;65526;48.578;-4.520;2023-07-29T02:17:18;100130.16;;;14.98;100.00
76632;BME280;65526;48.578;-4.520;2023-07-29T02:19:45;100319.75;;;15.95;100.00
76632;BME280;65526;48.578;-4.520;2023-07-29T02:22:14;100224.38;;;15.60;100.00
76632;BME280;65526;48.578;-4.520;2023-07-29T02:24:40;100550.13;;;17.72;100.00
76632;BME280;65526;48.578;-4.520;2023-07-29T02:27:07;100183.06;;;15.28;100.00
76632;BME280;65526;48.578;-4.520;2023-07-29T02:29:33;100563.78;;;17.77;100.00
76632;BME280;65526;48.578;-4.520;2023-07-29T02:32:00;100072.81;;;14.46;100.00
76632;BME280;65526;48.578;-4.520;2023-07-29T02:34:26;100088.78;;;14.46;100.00
76632;BME280;65526;48.578;-4.520;2023-07-29T02:36:53;100186.19;;;15.16;100.00
76632;BME280;65526;48.578;-4.520;2023-07-29T02:39:20;100072.38;;;14.44;100.00
76632;BME280;65526;48.578;-4.520;2023-07-29T02:41:46;100089.06;;;14.30;100.00
76632;BME280;65526;48.578;-4.520;2023-07-29T02:44:12;99978.22;;;13.83;100.00
76632;BME280;65526;48.578;-4.520;2023-07-29T02:46:39;100219.47;;;15.28;100.00
76632;BME280;65526;48.578;-4.520;2023-07-29T02:49:05;100091.63;;;14.53;100.00
76632;BME280;65526;48.578;-4.520;2023-07-29T02:51:32;100100.78;;;14.46;100.00
76632;BME280;65526;48.578;-4.520;2023-07-29T02:54:00;99904.56;;;13.40;100.00
76632;BME280;65526;48.578;-4.520;2023-07-29T02:56:26;100007.84;;;14.02;100.00
76632;BME280;65526;48.578;-4.520;2023-07-29T02:58:53;100136.81;;;14.69;100.00
76632;BME280;65526;48.578;-4.520;2023-07-29T03:01:20;100324.59;;;16.19;100.00
76632;BME280;65526;48.578;-4.520;2023-07-29T03:03:47;99922.97;;;13.52;100.00
76632;BME280;65526;48.578;-4.520;2023-07-29T03:06:14;99751.38;;;12.62;100.00
76632;BME280;65526;48.578;-4.520;2023-07-29T03:08:41;100450.97;;;16.80;100.00
76632;BME280;65526;48.578;-4.520;2023-07-29T03:11:13;100184.47;;;14.87;100.00
76632;BME280;65526;48.578;-4.520;2023-07-29T03:13:40;99936.03;;;13.37;100.00
76632;BME280;65526;48.578;-4.520;2023-07-29T03:16:08;100250.28;;;15.42;100.00
76632;BME280;65526;48.578;-4.520;2023-07-29T03:18:36;100361.50;;;16.36;100.00
76632;BME280;65526;48.578;-4.520;2023-07-29T03:21:03;100086.75;;;14.43;100.00
76632;BME280;65526;48.578;-4.520;2023-07-29T03:23:32;99991.91;;;14.06;100.00
76632;BME280;65526;48.578;-4.520;2023-07-29T03:26:00;100296.47;;;15.80;100.00
76632;BME280;65526;48.578;-4.520;2023-07-29T03:28:28;100615.53;;;17.59;100.00
76632;BME280;65526;48.578;-4.520;2023-07-29T03:30:56;99977.97;;;13.47;100.00
76632;BME280;65526;48.578;-4.520;2023-07-29T03:33:24;100319.78;;;16.09;100.00
76632;BME280;65526;48.578;-4.520;2023-07-29T03:35:53;99920.94;;;13.45;100.00
76632;BME280;65526;48.578;-4.520;2023-07-29T03:38:20;100008.25;;;14.00;100.00
76632;BME280;65526;48.578;-4.520;2023-07-29T03:40:47;100153.59;;;14.65;100.00
76632;BME280;65526;48.578;-4.520;2023-07-29T03:43:13;100043.81;;;14.07;100.00
76632;BME280;65526;48.578;-4.520;2023-07-29T03:45:40;100158.44;;;14.76;100.00
76632;BME280;65526;48.578;-4.520;2023-07-29T03:48:07;99992.06;;;13.65;100.00
76632;BME280;65526;48.578;-4.520;2023-07-29T03:50:35;100092.44;;;14.64;100.00
76632;BME280;65526;48.578;-4.520;2023-07-29T03:53:03;100581.81;;;17.52;100.00
76632;BME280;65526;48.578;-4.520;2023-07-29T03:55:30;100114.97;;;14.23;100.00
76632;BME280;65526;48.578;-4.520;2023-07-29T03:57:58;100556.50;;;17.20;100.00
76632;BME280;65526;48.578;-4.520;2023-07-29T04:00:25;100191.22;;;14.82;100.00
76632;BME280;65526;48.578;-4.520;2023-07-29T04:02:52;100131.16;;;14.51;100.00
76632;BME280;65526;48.578;-4.520;2023-07-29T04:05:19;100024.94;;;13.89;100.00
76632;BME280;65526;48.578;-4.520;2023-07-29T04:07:45;100256.63;;;15.22;100.00
76632;BME280;65526;48.578;-4.520;2023-07-29T04:10:12;100578.22;;;17.48;100.00
76632;BME280;65526;48.578;-4.520;2023-07-29T04:12:39;100133.09;;;14.44;100.00
76632;BME280;65526;48.578;-4.520;2023-07-29T04:15:06;100595.47;;;17.46;100.00
76632;BME280;65526;48.578;-4.520;2023-07-29T04:17:33;100146.94;;;14.26;100.00
76632;BME280;65526;48.578;-4.520;2023-07-29T04:19:59;100146.31;;;14.47;100.00
76632;BME280;65526;48.578;-4.520;2023-07-29T04:22:32;100227.16;;;14.73;100.00
76632;BME280;65526;48.578;-4.520;2023-07-29T04:24:59;100014.56;;;13.86;100.00
76632;BME280;65526;48.578;-4.520;2023-07-29T04:27:25;100174.66;;;14.49;100.00
76632;BME280;65526;48.578;-4.520;2023-07-29T04:29:52;99936.41;;;13.35;100.00
76632;BME280;65526;48.578;-4.520;2023-07-29T04:32:18;100605.09;;;17.41;100.00
76632;BME280;65526;48.578;-4.520;2023-07-29T04:34:44;100192.72;;;14.62;100.00
76632;BME280;65526;48.578;-4.520;2023-07-29T04:37:11;100022.25;;;13.49;100.00
76632;BME280;65526;48.578;-4.520;2023-07-29T04:39:37;100609.91;;;17.41;100.00
76632;BME280;65526;48.578;-4.520;2023-07-29T04:42:04;100243.97;;;14.77;100.00
76632;BME280;65526;48.578;-4.520;2023-07-29T04:44:30;100176.34;;;14.60;100.00
76632;BME280;65526;48.578;-4.520;2023-07-29T04:46:57;100014.31;;;13.55;100.00
76632;BME280;65526;48.578;-4.520;2023-07-29T04:49:23;100215.50;;;14.64;100.00
76632;BME280;65526;48.578;-4.520;2023-07-29T04:51:50;100609.09;;;17.40;100.00
76632;BME280;65526;48.578;-4.520;2023-07-29T04:54:16;99880.25;;;12.89;100.00
76632;BME280;65526;48.578;-4.520;2023-07-29T04:56:43;100639.59;;;17.38;100.00
76632;BME280;65526;48.578;-4.520;2023-07-29T04:59:09;100234.47;;;14.95;100.00
76632;BME280;65526;48.578;-4.520;2023-07-29T05:01:35;99968.78;;;13.47;100.00
76632;BME280;65526;48.578;-4.520;2023-07-29T05:04:02;100670.91;;;17.40;100.00
76632;BME280;65526;48.578;-4.520;2023-07-29T05:06:29;99840.22;;;12.67;100.00
76632;BME280;65526;48.578;-4.520;2023-07-29T05:08:57;99871.81;;;12.82;100.00
76632;BME280;65526;48.578;-4.520;2023-07-29T05:11:24;99883.41;;;12.84;100.00
76632;BME280;65526;48.578;-4.520;2023-07-29T05:13:51;100405.81;;;15.88;100.00
76632;BME280;65526;48.578;-4.520;2023-07-29T05:16:18;100256.16;;;15.13;100.00
76632;BME280;65526;48.578;-4.520;2023-07-29T05:18:44;100268.00;;;14.81;100.00
76632;BME280;65526;48.578;-4.520;2023-07-29T05:21:11;100490.13;;;16.41;100.00
76632;BME280;65526;48.578;-4.520;2023-07-29T05:23:40;100085.91;;;13.77;100.00
76632;BME280;65526;48.578;-4.520;2023-07-29T05:26:07;100105.00;;;13.71;100.00
76632;BME280;65526;48.578;-4.520;2023-07-29T05:28:33;100629.53;;;17.27;100.00
76632;BME280;65526;48.578;-4.520;2023-07-29T05:31:01;100680.50;;;17.25;100.00
76632;BME280;65526;48.578;-4.520;2023-07-29T05:33:28;100634.75;;;17.25;100.00
76632;BME280;65526;48.578;-4.520;2023-07-29T05:35:54;100253.88;;;14.63;100.00
76632;BME280;65526;48.578;-4.520;2023-07-29T05:38:21;100649.22;;;17.23;100.00
76632;BME280;65526;48.578;-4.520;2023-07-29T05:40:48;100283.47;;;14.68;100.00
76632;BME280;65526;48.578;-4.520;2023-07-29T05:43:15;100473.97;;;16.09;100.00
76632;BME280;65526;48.578;-4.520;2023-07-29T05:45:41;100224.03;;;14.31;100.00
76632;BME280;65526;48.578;-4.520;2023-07-29T05:48:08;100498.84;;;16.14;100.00
76632;BME280;65526;48.578;-4.520;2023-07-29T05:50:34;100405.31;;;15.68;100.00
76632;BME280;65526;48.578;-4.520;2023-07-29T05:53:01;100642.78;;;17.23;100.00
76632;BME280;65526;48.578;-4.520;2023-07-29T05:55:27;100025.22;;;13.23;100.00
76632;BME280;65526;48.578;-4.520;2023-07-29T05:57:53;100636.38;;;17.26;100.00
76632;BME280;65526;48.578;-4.520;2023-07-29T06:00:21;100420.16;;;15.75;100.00
76632;BME280;65526;48.578;-4.520;2023-07-29T06:02:47;100120.75;;;13.94;100.00
76632;BME280;65526;48.578;-4.520;2023-07-29T06:05:16;100149.34;;;14.31;100.00
76632;BME280;65526;48.578;-4.520;2023-07-29T06:07:43;100636.38;;;17.33;100.00
76632;BME280;65526;48.578;-4.520;2023-07-29T06:10:15;99858.06;;;12.59;100.00
76632;BME280;65526;48.578;-4.520;2023-07-29T06:12:45;100453.16;;;16.14;100.00
76632;BME280;65526;48.578;-4.520;2023-07-29T06:15:12;100125.28;;;14.16;100.00
76632;BME280;65526;48.578;-4.520;2023-07-29T06:17:39;99985.56;;;13.06;100.00
76632;BME280;65526;48.578;-4.520;2023-07-29T06:20:06;100654.09;;;17.44;100.00
76632;BME280;65526;48.578;-4.520;2023-07-29T06:22:32;100421.81;;;15.91;100.00
76632;BME280;65526;48.578;-4.520;2023-07-29T06:24:59;100151.53;;;14.55;100.00
76632;BME280;65526;48.578;-4.520;2023-07-29T06:27:25;100111.41;;;14.30;100.00
76632;BME280;65526;48.578;-4.520;2023-07-29T06:29:52;100003.09;;;13.47;100.00
76632;BME280;65526;48.578;-4.520;2023-07-29T06:32:18;100669.00;;;17.73;100.00
76632;BME280;65526;48.578;-4.520;2023-07-29T06:34:45;100094.38;;;14.46;100.00
76632;BME280;65526;48.578;-4.520;2023-07-29T06:37:11;100352.88;;;15.72;100.00
76632;BME280;65526;48.578;-4.520;2023-07-29T06:39:38;100614.78;;;17.79;100.00
76632;BME280;65526;48.578;-4.520;2023-07-29T06:42:04;100188.88;;;14.88;100.00
76632;BME280;65526;48.578;-4.520;2023-07-29T06:44:31;100654.94;;;17.87;100.00
76632;BME280;65526;48.578;-4.520;2023-07-29T06:46:58;100206.53;;;14.99;100.00
76632;BME280;65526;48.578;-4.520;2023-07-29T06:49:24;100281.97;;;15.54;100.00
76632;BME280;65526;48.578;-4.520;2023-07-29T06:51:50;100526.41;;;17.20;100.00
76632;BME280;65526;48.578;-4.520;2023-07-29T06:54:17;99957.91;;;13.89;100.00
76632;BME280;65526;48.578;-4.520;2023-07-29T06:56:43;100652.09;;;18.19;100.00
76632;BME280;65526;48.578;-4.520;2023-07-29T06:59:10;100143.28;;;14.80;100.00
76632;BME280;65526;48.578;-4.520;2023-07-29T07:01:36;100456.19;;;16.88;100.00
76632;BME280;65526;48.578;-4.520;2023-07-29T07:04:03;100128.47;;;14.73;100.00
76632;BME280;65526;48.578;-4.520;2023-07-29T07:06:29;100214.28;;;15.37;100.00
76632;BME280;65526;48.578;-4.520;2023-07-29T07:08:55;100326.56;;;16.05;100.00
76632;BME280;65526;48.578;-4.520;2023-07-29T07:11:22;100116.16;;;14.95;100.00
76632;BME280;65526;48.578;-4.520;2023-07-29T07:13:48;100405.25;;;16.69;100.00
76632;BME280;65526;48.578;-4.520;2023-07-29T07:16:14;100145.31;;;14.87;100.00
76632;BME280;65526;48.578;-4.520;2023-07-29T07:18:41;100180.34;;;15.53;100.00
76632;BME280;65526;48.578;-4.520;2023-07-29T07:21:07;100686.66;;;18.48;100.00
76632;BME280;65526;48.578;-4.520;2023-07-29T07:23:34;100303.31;;;15.97;100.00
76632;BME280;65526;48.578;-4.520;2023-07-29T07:26:00;100138.88;;;14.83;100.00
76632;BME280;65526;48.578;-4.520;2023-07-29T07:28:27;100465.00;;;16.90;100.00
76632;BME280;65526;48.578;-4.520;2023-07-29T07:30:53;100380.69;;;16.30;100.00
76632;BME280;65526;48.578;-4.520;2023-07-29T07:33:22;100285.28;;;15.80;100.00
76632;BME280;65526;48.578;-4.520;2023-07-29T07:35:48;100679.03;;;18.55;100.00
76632;BME280;65526;48.578;-4.520;2023-07-29T07:38:15;99982.38;;;14.17;100.00
76632;BME280;65526;48.578;-4.520;2023-07-29T07:40:41;99966.84;;;14.20;100.00
76632;BME280;65526;48.578;-4.520;2023-07-29T07:43:07;100696.28;;;18.47;100.00
76632;BME280;65526;48.578;-4.520;2023-07-29T07:45:34;100542.88;;;17.15;100.00
76632;BME280;65526;48.578;-4.520;2023-07-29T07:48:00;100257.34;;;15.08;100.00
76632;BME280;65526;48.578;-4.520;2023-07-29T07:50:29;99931.38;;;13.07;100.00
76632;BME280;65526;48.578;-4.520;2023-07-29T07:52:56;100275.97;;;14.83;100.00
76632;BME280;65526;48.578;-4.520;2023-07-29T07:55:22;100247.59;;;14.84;100.00
76632;BME280;65526;48.578;-4.520;2023-07-29T07:57:49;100331.44;;;15.32;100.00
76632;BME280;65526;48.578;-4.520;2023-07-29T08:00:15;100554.56;;;16.30;100.00
76632;BME280;65526;48.578;-4.520;2023-07-29T08:02:43;100268.59;;;14.53;100.00
76632;BME280;65526;48.578;-4.520;2023-07-29T08:05:10;100746.38;;;17.42;100.00
76632;BME280;65526;48.578;-4.520;2023-07-29T08:07:36;100158.28;;;13.52;100.00
76632;BME280;65526;48.578;-4.520;2023-07-29T08:10:03;100276.28;;;14.23;100.00
76632;BME280;65526;48.578;-4.520;2023-07-29T08:12:29;100356.00;;;14.94;100.00
76632;BME280;65526;48.578;-4.520;2023-07-29T08:14:55;100543.00;;;16.39;100.00
76632;BME280;65526;48.578;-4.520;2023-07-29T08:17:22;100629.25;;;16.59;100.00
76632;BME280;65526;48.578;-4.520;2023-07-29T08:19:48;100312.72;;;14.78;100.00
76632;BME280;65526;48.578;-4.520;2023-07-29T08:22:15;100343.22;;;14.93;100.00
76632;BME280;65526;48.578;-4.520;2023-07-29T08:24:43;100030.94;;;13.37;100.00
76632;BME280;65526;48.578;-4.520;2023-07-29T08:27:10;100145.53;;;13.99;100.00
76632;BME280;65526;48.578;-4.520;2023-07-29T08:29:36;100339.50;;;14.79;100.00
76632;BME280;65526;48.578;-4.520;2023-07-29T08:32:02;100240.84;;;14.34;100.00
76632;BME280;65526;48.578;-4.520;2023-07-29T08:34:29;100285.91;;;14.77;100.00
76632;BME280;65526;48.578;-4.520;2023-07-29T08:36:55;100462.53;;;15.70;100.00
76632;BME280;65526;48.578;-4.520;2023-07-29T08:39:22;100231.31;;;14.39;100.00
76632;BME280;65526;48.578;-4.520;2023-07-29T08:41:59;100300.91;;;15.05;100.00
76632;BME280;65526;48.578;-4.520;2023-07-29T08:44:31;100451.16;;;16.14;100.00
76632;BME280;65526;48.578;-4.520;2023-07-29T08:47:00;100761.41;;;17.89;100.00
76632;BME280;65526;48.578;-4.520;2023-07-29T08:49:27;99987.09;;;13.41;100.00
76632;BME280;65526;48.578;-4.520;2023-07-29T08:51:55;100002.78;;;13.56;100.00
76632;BME280;65526;48.578;-4.520;2023-07-29T08:54:23;100753.41;;;18.15;100.00
76632;BME280;65526;48.578;-4.520;2023-07-29T08:56:50;100161.84;;;14.44;100.00
76632;BME280;65526;48.578;-4.520;2023-07-29T08:59:16;100330.31;;;15.43;100.00
76632;BME280;65526;48.578;-4.520;2023-07-29T09:01:44;100178.38;;;14.71;100.00
76632;BME280;65526;48.578;-4.520;2023-07-29T09:04:10;100262.91;;;15.01;100.00
76632;BME280;65526;48.578;-4.520;2023-07-29T09:06:37;100752.19;;;18.20;100.00
76632;BME280;65526;48.578;-4.520;2023-07-29T09:09:07;100570.44;;;16.84;100.00
76632;BME280;65526;48.578;-4.520;2023-07-29T09:11:33;100275.06;;;15.37;100.00
76632;BME280;65526;48.578;-4.520;2023-07-29T09:14:00;100149.00;;;14.36;100.00
76632;BME280;65526;48.578;-4.520;2023-07-29T09:16:26;100755.81;;;18.28;100.00
76632;BME280;65526;48.578;-4.520;2023-07-29T09:18:53;100035.69;;;13.87;100.00
76632;BME280;65526;48.578;-4.520;2023-07-29T09:21:24;100116.25;;;14.33;100.00
76632;BME280;65526;48.578;-4.520;2023-07-29T09:23:53;100756.63;;;18.28;100.00
76632;BME280;65526;48.578;-4.520;2023-07-29T09:26:23;100335.94;;;15.51;100.00
76632;BME280;65526;48.578;-4.520;2023-07-29T09:28:58;100335.34;;;15.93;100.00
76632;BME280;65526;48.578;-4.520;2023-07-29T09:31:26;100359.72;;;15.78;100.00
76632;BME280;65526;48.578;-4.520;2023-07-29T09:34:01;100513.56;;;17.09;100.00
76632;BME280;65526;48.578;-4.520;2023-07-29T09:36:30;100734.09;;;18.49;100.00
76632;BME280;65526;48.578;-4.520;2023-07-29T09:38:57;100089.22;;;14.58;100.00
76632;BME280;65526;48.578;-4.520;2023-07-29T09:41:28;100268.28;;;15.38;100.00
76632;BME280;65526;48.578;-4.520;2023-07-29T09:43:59;100777.94;;;18.72;100.00
76632;BME280;65526;48.578;-4.520;2023-07-29T09:46:34;100011.47;;;14.09;99.37
76632;BME280;65526;48.578;-4.520;2023-07-29T09:49:06;100172.16;;;15.05;100.00
76632;BME280;65526;48.578;-4.520;2023-07-29T09:51:37;99992.94;;;13.76;100.00
76632;BME280;65526;48.578;-4.520;2023-07-29T09:54:05;100018.50;;;13.78;100.00
76632;BME280;65526;48.578;-4.520;2023-07-29T09:56:32;100231.13;;;14.68;100.00
76632;BME280;65526;48.578;-4.520;2023-07-29T09:58:58;100785.94;;;18.13;100.00
76632;BME280;65526;48.578;-4.520;2023-07-29T10:01:25;100633.84;;;16.92;100.00
76632;BME280;65526;48.578;-4.520;2023-07-29T10:03:51;100509.06;;;16.61;100.00
76632;BME280;65526;48.578;-4.520;2023-07-29T10:06:18;100476.38;;;16.07;100.00
76632;BME280;65526;48.578;-4.520;2023-07-29T10:08:47;100373.59;;;15.53;100.00
76632;BME280;65526;48.578;-4.520;2023-07-29T10:11:16;100783.53;;;18.33;100.00
76632;BME280;65526;48.578;-4.520;2023-07-29T10:13:45;100201.00;;;14.44;100.00
76632;BME280;65526;48.578;-4.520;2023-07-29T10:16:12;100307.94;;;15.47;100.00
76632;BME280;65526;48.578;-4.520;2023-07-29T10:18:39;100767.84;;;18.46;100.00
76632;BME280;65526;48.578;-4.520;2023-07-29T10:21:06;100376.09;;;15.69;100.00
76632;BME280;65526;48.578;-4.520;2023-07-29T10:23:38;100441.63;;;16.40;100.00
76632;BME280;65526;48.578;-4.520;2023-07-29T10:26:10;100094.81;;;14.58;100.00
76632;BME280;65526;48.578;-4.520;2023-07-29T10:28:40;100752.19;;;18.66;100.00
76632;BME280;65526;48.578;-4.520;2023-07-29T10:31:07;100224.31;;;15.45;100.00
76632;BME280;65526;48.578;-4.520;2023-07-29T10:33:34;100800.00;;;19.05;100.00
76632;BME280;65526;48.578;-4.520;2023-07-29T10:36:01;100365.44;;;16.13;100.00
76632;BME280;65526;48.578;-4.520;2023-07-29T10:38:28;100454.97;;;16.68;100.00
76632;BME280;65526;48.578;-4.520;2023-07-29T10:40:56;100468.19;;;16.71;100.00
76632;BME280;65526;48.578;-4.520;2023-07-29T10:43:37;100484.28;;;16.95;100.00
76632;BME280;65526;48.578;-4.520;2023-07-29T10:46:20;100797.97;;;19.09;100.00
76632;BME280;65526;48.578;-4.520;2023-07-29T10:54:14;100526.41;;;17.59;100.00
76632;BME280;65526;48.578;-4.520;2023-07-29T10:56:43;100805.97;;;19.32;100.00
76632;BME280;65526;48.578;-4.520;2023-07-29T11:01:40;100669.41;;;17.86;100.00
76632;BME280;65526;48.578;-4.520;2023-07-29T11:12:44;100808.88;;;18.82;100.00
76632;BME280;65526;48.578;-4.520;2023-07-29T11:17:56;100419.16;;;16.22;100.00
76632;BME280;65526;48.578;-4.520;2023-07-29T11:20:30;100858.38;;;18.62;100.00
76632;BME280;65526;48.578;-4.520;2023-07-29T11:22:59;100207.59;;;14.22;99.92
76632;BME280;65526;48.578;-4.520;2023-07-29T11:25:27;100874.72;;;17.96;100.00
76632;BME280;65526;48.578;-4.520;2023-07-29T11:27:55;100186.81;;;13.75;100.00
76632;BME280;65526;48.578;-4.520;2023-07-29T11:30:22;100852.50;;;17.66;100.00
76632;BME280;65526;48.578;-4.520;2023-07-29T11:32:49;100429.75;;;14.72;100.00
76632;BME280;65526;48.578;-4.520;2023-07-29T11:35:17;100339.97;;;14.40;100.00
76632;BME280;65526;48.578;-4.520;2023-07-29T11:37:46;100838.06;;;17.75;100.00
76632;BME280;65526;48.578;-4.520;2023-07-29T11:40:20;100158.81;;;13.65;100.00
76632;BME280;65526;48.578;-4.520;2023-07-29T11:42:47;100886.75;;;18.00;100.00
76632;BME280;65526;48.578;-4.520;2023-07-29T11:45:16;100579.97;;;16.58;100.00
76632;BME280;65526;48.578;-4.520;2023-07-29T11:47:43;100703.88;;;17.51;100.00
76632;BME280;65526;48.578;-4.520;2023-07-29T11:50:10;100867.19;;;18.43;100.00
76632;BME280;65526;48.578;-4.520;2023-07-29T11:52:41;100360.63;;;15.27;100.00
76632;BME280;65526;48.578;-4.520;2023-07-29T11:55:08;100348.53;;;15.13;100.00
76632;BME280;65526;48.578;-4.520;2023-07-29T11:57:37;100448.25;;;15.93;100.00
76632;BME280;65526;48.578;-4.520;2023-07-29T12:00:09;100273.84;;;15.27;100.00
76632;BME280;65526;48.578;-4.520;2023-07-29T12:02:38;100586.94;;;17.00;100.00
76632;BME280;65526;48.578;-4.520;2023-07-29T12:05:05;100870.03;;;18.82;100.00
76632;BME280;65526;48.578;-4.520;2023-07-29T12:07:32;100383.25;;;15.59;100.00
76632;BME280;65526;48.578;-4.520;2023-07-29T12:10:03;100887.75;;;18.82;100.00
76632;BME280;65526;48.578;-4.520;2023-07-29T12:12:29;100493.25;;;16.21;98.58
76632;BME280;65526;48.578;-4.520;2023-07-29T12:14:56;100413.47;;;16.05;97.23
76632;BME280;65526;48.578;-4.520;2023-07-29T12:17:23;100448.28;;;16.00;97.62
76632;BME280;65526;48.578;-4.520;2023-07-29T12:19:49;100875.25;;;18.87;96.90
76632;BME280;65526;48.578;-4.520;2023-07-29T12:22:19;100355.88;;;15.38;95.51
76632;BME280;65526;48.578;-4.520;2023-07-29T12:24:45;100323.00;;;15.21;93.94
76632;BME280;65526;48.578;-4.520;2023-07-29T12:27:15;100631.38;;;16.73;94.75
76632;BME280;65526;48.578;-4.520;2023-07-29T12:29:42;100873.25;;;18.73;96.15
76632;BME280;65526;48.578;-4.520;2023-07-29T12:32:10;100718.41;;;17.81;96.18
76632;BME280;65526;48.578;-4.520;2023-07-29T12:34:38;100403.31;;;15.72;95.21
76632;BME280;65526;48.578;-4.520;2023-07-29T12:37:07;100922.34;;;19.15;95.25
76632;BME280;65526;48.578;-4.520;2023-07-29T12:39:35;100360.94;;;15.80;94.27
76632;BME280;65526;48.578;-4.520;2023-07-29T12:42:02;100364.97;;;15.87;92.18
76632;BME280;65526;48.578;-4.520;2023-07-29T12:44:33;100229.44;;;15.26;93.14
76632;BME280;65526;48.578;-4.520;2023-07-29T12:47:01;100572.16;;;17.21;93.53
76632;BME280;65526;48.578;-4.520;2023-07-29T12:49:29;100924.72;;;19.66;93.47
76632;BME280;65526;48.578;-4.520;2023-07-29T12:51:59;100311.72;;;15.97;90.11
76632;BME280;65526;48.578;-4.520;2023-07-29T12:54:26;100617.16;;;17.56;89.33
76632;BME280;65526;48.578;-4.520;2023-07-29T12:56:52;100914.22;;;19.66;90.36